RÉSULTATS    10km de Saint Médard en Jalles - Édition du 24/03/2019
Vous pouvez changer la distance ici.
Vous pouvez changer la distance ici.
Photos de l'évènement Classement Temps Réel - Temps Puce2014 participants - 585 Femmes
- 1429 Hommes
481 licenciés (24%) - 1533 non-licenciés (76%)
Temps moyen : 00:49:45
| Position | Pos. | Temps | Nom - Prénom | Club | Dossard | Catégorie | km/h | Temps Reel | |
|---|---|---|---|---|---|---|---|---|---|
| 1439 | 00:55:24 | GREEN David | ATHLETISME SUD 17* | 573 | V3M (53 / 85) | 11.0 | 00:54:26 | ||
| 1440 | 00:55:24 | GRANDJEAN Christophe | MAIRIE DE SAINT MEDARD EN JALL | 951 | V2M (185 / 243) | 10.9 | 00:54:48 | ||
| 1437 | 00:55:23 | QUINQUET Fadila | PINK RUNNERS | 1651 | V2F (27 / 69) | 11.0 | 00:54:20 | ||
| 1435 | 00:55:21 | BUTLER Adele | DUCRU-BEAUCAILLOU TEAM | 1759 | SEF (121 / 250) | 11.0 | 00:54:33 | ||
| 1436 | 00:55:21 | MATHON Olivier | SAM MERIGNAC | 269 | V1M (331 / 417) | 11.0 | 00:54:23 | ||
| 1432 | 00:55:20 | LAFFOND Josselin | 887 | SEM (528 / 592) | 11.0 | 00:54:21 | |||
| 1433 | 00:55:20 | LACAZE Stephane | 1108 | V1M (330 / 417) | 11.0 | 00:54:21 | |||
| 1434 | 00:55:20 | KRESSMANN Laure | 1939 | V1F (81 / 197) | 11.0 | 00:54:18 | |||
| 1431 | 00:55:19 | SIMONIN Eric | ENTREPRISE ROXEL | 1440 | V2M (184 / 243) | 10.9 | 00:54:50 | ||
| 1429 | 00:55:18 | GOSSET Charlotte | 1659 | SEF (120 / 250) | 11.0 | 00:54:19 | |||
| 1430 | 00:55:18 | PINART Stephane | 780 | V1M (329 / 417) | 11.0 | 00:54:15 | |||
| 1426 | 00:55:17 | BROSSET Pauline | 1547 | SEF (119 / 250) | 11.0 | 00:54:13 | |||
| 1427 | 00:55:17 | LABORDE Olivier | ENTREPRISE SUD OUEST | 1323 | V1M (328 / 417) | 10.9 | 00:54:43 | ||
| 1428 | 00:55:17 | SANTOS Liliane | 1598 | V2F (26 / 69) | 11.0 | 00:54:19 | |||
| 1425 | 00:55:15 | RIBOWSKY Estele | US TALENCE* | 1609 | V1F (80 / 197) | 11.0 | 00:54:11 | ||
| 1423 | 00:55:14 | GIRAUD Marie | 1745 | V2F (25 / 69) | 11.0 | 00:54:10 | |||
| 1424 | 00:55:14 | FICHOU Francois | 1045 | V2M (183 / 243) | 11.0 | 00:54:10 | |||
| 1422 | 00:55:13 | QUERAUD Romain | 1278 | SEM (527 / 592) | 11.0 | 00:54:19 | |||
| 1421 | 00:55:12 | HERCEK Samuel | MAIRIE DE SAINT AUBIN DE MEDOC | 960 | SEM (526 / 592) | 11.0 | 00:54:31 | ||
| 1419 | 00:55:11 | AHMED MICHAUX Francois | 1403 | SEM (525 / 592) | 11.0 | 00:54:07 | |||
| 1420 | 00:55:11 | SALINIERES Richard | 4344 | V2M (182 / 243) | 11.0 | 00:54:04 | |||
| 1417 | 00:55:10 | PELLICER Manuel | GAZELEC GIRONDIN | 1023 | V2M (181 / 243) | 11.1 | 00:54:02 | ||
| 1418 | 00:55:10 | CAZENAVE Emmanuel | 1329 | V1M (327 / 417) | 11.0 | 00:54:07 | |||
| 1416 | 00:55:08 | MALLET Adrien | 5899 | SEM (524 / 592) | 11.0 | 00:54:09 | |||
| 1415 | 00:55:08 | BENSANDOURA Fatima | 1681 | V2F (24 / 69) | 11.0 | 00:54:04 |
